createdAt,value
2023-05-18T00:00:36.226Z,3.03
2023-05-18T00:03:04.830Z,5.33
2023-05-18T00:05:34.923Z,6.17
2023-05-18T00:08:03.753Z,4.00
2023-05-18T00:10:32.343Z,4.50
2023-05-18T00:13:00.864Z,5.90
2023-05-18T00:15:29.628Z,3.50
2023-05-18T00:17:59.363Z,3.80
2023-05-18T00:20:27.778Z,4.00
2023-05-18T00:22:56.107Z,3.70
2023-05-18T00:25:24.907Z,4.30
2023-05-18T00:27:53.391Z,4.60
2023-05-18T00:30:22.296Z,3.47
2023-05-18T00:36:19.762Z,4.70
2023-05-18T00:38:48.266Z,4.60
2023-05-18T00:41:16.730Z,3.50
2023-05-18T00:43:45.057Z,5.20
2023-05-18T00:46:13.645Z,4.63
2023-05-18T00:48:42.142Z,4.90
2023-05-18T00:51:10.876Z,3.67
2023-05-18T00:53:40.624Z,4.00
2023-05-18T00:56:11.953Z,4.23
2023-05-18T00:58:44.916Z,4.80
2023-05-18T01:01:13.516Z,3.97
2023-05-18T01:03:44.159Z,7.40
2023-05-18T01:06:13.826Z,4.40
2023-05-18T01:08:44.846Z,5.60
2023-05-18T01:11:57.147Z,3.90
2023-05-18T01:14:53.164Z,3.33
2023-05-18T01:17:46.247Z,5.57
2023-05-18T01:20:58.527Z,3.67
2023-05-18T01:24:11.797Z,4.13
2023-05-18T01:26:46.171Z,8.00
2023-05-18T01:29:17.082Z,5.53
2023-05-18T01:31:59.937Z,4.40
2023-05-18T01:34:28.630Z,4.20
2023-05-18T01:36:57.609Z,5.13
2023-05-18T01:39:26.331Z,4.70
2023-05-18T01:42:00.624Z,4.57
2023-05-18T01:44:35.195Z,4.93
2023-05-18T01:47:26.270Z,3.90
2023-05-18T01:50:03.507Z,3.93
2023-05-18T01:52:39.010Z,3.37
2023-05-18T01:55:09.447Z,3.37
2023-05-18T01:57:40.419Z,3.97
2023-05-18T02:00:11.026Z,4.47
2023-05-18T02:02:39.844Z,3.93
2023-05-18T02:05:13.078Z,4.90
2023-05-18T02:07:44.812Z,7.30
2023-05-18T02:10:13.706Z,5.30
2023-05-18T02:12:42.394Z,8.83
2023-05-18T02:15:11.446Z,4.10
2023-05-18T02:17:40.050Z,4.00
2023-05-18T02:20:09.184Z,4.97
2023-05-18T02:22:38.195Z,6.70
2023-05-18T02:25:07.990Z,4.13
2023-05-18T02:27:37.522Z,4.30
2023-05-18T02:30:09.140Z,5.23
2023-05-18T02:32:40.417Z,4.93
2023-05-18T02:35:09.984Z,4.23
2023-05-18T02:37:40.613Z,4.87
2023-05-18T02:40:12.177Z,4.30
2023-05-18T02:42:40.732Z,4.30
2023-05-18T02:45:09.987Z,4.70
2023-05-18T02:47:38.618Z,5.33
2023-05-18T02:50:07.783Z,7.00
2023-05-18T02:52:36.297Z,4.90
2023-05-18T02:55:04.956Z,8.50
2023-05-18T02:57:33.669Z,5.70
2023-05-18T03:00:02.113Z,4.73
2023-05-18T03:02:30.894Z,4.80
2023-05-18T03:04:59.307Z,4.77
2023-05-18T03:07:28.399Z,4.80
2023-05-18T03:09:56.777Z,7.43
2023-05-18T03:12:25.219Z,6.17
2023-05-18T03:14:53.590Z,5.93
2023-05-18T03:17:22.056Z,5.90
2023-05-18T03:19:50.532Z,5.43
2023-05-18T03:22:18.907Z,5.03
2023-05-18T03:24:47.308Z,9.67
2023-05-18T03:27:17.244Z,5.90
2023-05-18T03:29:46.438Z,5.53
2023-05-18T03:32:14.810Z,10.20
2023-05-18T03:34:45.545Z,7.00
2023-05-18T03:37:14.004Z,5.30
2023-05-18T03:39:42.451Z,5.40
2023-05-18T03:42:10.932Z,5.20
2023-05-18T03:44:39.365Z,5.27
2023-05-18T03:47:08.588Z,7.53
2023-05-18T03:49:37.045Z,4.90
2023-05-18T03:52:06.169Z,5.17
2023-05-18T03:54:34.747Z,8.40
2023-05-18T03:57:03.146Z,6.80
2023-05-18T03:59:31.679Z,6.10
2023-05-18T04:02:03.158Z,6.40
2023-05-18T04:04:31.911Z,5.30
2023-05-18T04:07:03.152Z,6.40
2023-05-18T04:09:31.507Z,7.23
2023-05-18T04:11:59.910Z,6.90
2023-05-18T04:14:28.937Z,6.10
2023-05-18T04:16:59.064Z,6.33
2023-05-18T04:19:27.456Z,7.57
2023-05-18T04:21:55.860Z,6.30
2023-05-18T04:24:30.062Z,7.17
2023-05-18T04:27:00.243Z,6.87
2023-05-18T04:29:29.693Z,6.10
2023-05-18T04:32:01.814Z,7.37
2023-05-18T04:34:31.312Z,6.87
2023-05-18T04:36:59.851Z,6.60
2023-05-18T04:39:28.269Z,7.07
2023-05-18T04:41:58.940Z,9.43
2023-05-18T04:44:31.225Z,6.00
2023-05-18T04:47:00.194Z,6.80
2023-05-18T04:49:29.112Z,6.77
2023-05-18T04:51:58.895Z,8.43
2023-05-18T04:54:37.853Z,7.83
2023-05-18T04:57:06.200Z,7.23
2023-05-18T04:59:37.727Z,8.23
2023-05-18T05:02:06.746Z,8.37
2023-05-18T05:04:35.448Z,9.80
2023-05-18T05:07:03.919Z,5.90
2023-05-18T05:09:32.413Z,6.70
2023-05-18T05:12:00.839Z,6.80
2023-05-18T05:14:29.343Z,8.90
2023-05-18T05:16:57.758Z,11.77
2023-05-18T05:19:28.941Z,8.00
2023-05-18T05:21:57.313Z,5.23
2023-05-18T05:24:25.906Z,9.00
2023-05-18T05:26:54.342Z,6.90
2023-05-18T05:29:22.778Z,8.30
2023-05-18T05:31:51.393Z,8.80
2023-05-18T05:34:20.145Z,7.47
2023-05-18T05:36:48.540Z,7.13
2023-05-18T05:39:16.896Z,5.70
2023-05-18T05:41:45.367Z,8.90
2023-05-18T05:44:13.797Z,8.00
2023-05-18T05:46:42.191Z,6.70
2023-05-18T05:49:10.677Z,6.47
2023-05-18T05:51:42.066Z,6.07
2023-05-18T05:54:10.901Z,6.63
2023-05-18T05:56:39.308Z,5.63
2023-05-18T05:59:07.685Z,6.00
2023-05-18T06:01:36.296Z,5.73
2023-05-18T06:04:07.216Z,6.80
2023-05-18T06:06:35.602Z,6.10
2023-05-18T06:09:05.356Z,7.40
2023-05-18T06:11:33.817Z,5.53
2023-05-18T06:14:02.216Z,6.63
2023-05-18T06:16:30.640Z,6.20
2023-05-18T06:18:59.213Z,6.30
2023-05-18T06:21:27.635Z,7.07
2023-05-18T06:23:56.127Z,5.30
2023-05-18T06:26:24.600Z,7.53
2023-05-18T06:28:52.969Z,7.13
2023-05-18T06:31:21.874Z,6.20
2023-05-18T06:33:50.551Z,5.70
2023-05-18T06:36:19.231Z,6.80
2023-05-18T06:38:47.722Z,5.30
2023-05-18T06:41:16.179Z,6.93
2023-05-18T06:43:44.618Z,5.30
2023-05-18T06:46:21.933Z,7.93
2023-05-18T06:48:50.390Z,12.00
2023-05-18T06:51:18.793Z,10.30
2023-05-18T06:53:47.369Z,7.10
2023-05-18T06:56:15.819Z,5.40
2023-05-18T06:58:44.489Z,6.30
2023-05-18T07:01:13.049Z,6.77
2023-05-18T07:03:41.732Z,5.17
2023-05-18T07:06:10.214Z,5.87
2023-05-18T07:08:38.602Z,6.87
2023-05-18T07:11:07.172Z,5.03
2023-05-18T07:13:35.524Z,5.10
2023-05-18T07:16:03.950Z,5.10
2023-05-18T07:18:32.353Z,5.83
2023-05-18T07:21:00.786Z,6.00
2023-05-18T07:23:29.580Z,7.00
2023-05-18T07:25:58.714Z,5.93
2023-05-18T07:28:27.165Z,6.00
2023-05-18T07:30:55.527Z,5.50
2023-05-18T07:33:24.080Z,7.07
2023-05-18T07:35:52.516Z,7.63
2023-05-18T07:38:20.858Z,7.00
2023-05-18T07:40:49.213Z,6.33
2023-05-18T07:43:17.602Z,6.27
2023-05-18T07:45:46.144Z,8.37
2023-05-18T07:48:14.562Z,6.50
2023-05-18T07:50:42.979Z,6.90
2023-05-18T07:53:11.454Z,6.77
2023-05-18T07:55:39.926Z,7.23
2023-05-18T07:58:08.398Z,9.20
2023-05-18T08:00:36.988Z,6.17
2023-05-18T08:03:07.622Z,6.90
2023-05-18T08:05:36.232Z,7.60
2023-05-18T08:08:06.849Z,6.87
2023-05-18T08:10:35.850Z,6.23
2023-05-18T08:13:04.289Z,6.10
2023-05-18T08:15:32.862Z,6.63
2023-05-18T08:18:01.514Z,6.43
2023-05-18T08:20:32.908Z,6.50
2023-05-18T08:23:01.467Z,7.17
2023-05-18T08:25:30.157Z,6.67
2023-05-18T08:27:58.786Z,6.50
2023-05-18T08:30:27.636Z,8.53
2023-05-18T08:32:56.067Z,7.17
2023-05-18T08:35:24.893Z,7.43
2023-05-18T08:37:53.312Z,6.13
2023-05-18T08:40:21.930Z,6.83
2023-05-18T08:43:07.562Z,6.03
2023-05-18T08:46:01.328Z,6.30
2023-05-18T08:48:32.514Z,9.37
2023-05-18T08:51:05.012Z,7.40
2023-05-18T08:53:34.773Z,6.77
2023-05-18T08:56:03.640Z,6.67
2023-05-18T08:58:48.282Z,6.23
2023-05-18T09:01:17.232Z,7.00
2023-05-18T09:03:50.036Z,6.97
2023-05-18T09:06:19.242Z,6.93
2023-05-18T09:08:48.910Z,9.13
2023-05-18T09:11:18.394Z,8.33
2023-05-18T09:13:47.622Z,6.90
2023-05-18T09:16:16.037Z,7.47
2023-05-18T09:18:44.465Z,6.63
2023-05-18T09:21:13.416Z,7.33
2023-05-18T09:23:42.317Z,6.70
2023-05-18T09:26:10.984Z,5.87
2023-05-18T09:28:41.418Z,8.50
2023-05-18T09:31:13.406Z,7.10
2023-05-18T09:33:44.277Z,7.20
2023-05-18T09:36:13.181Z,6.57
2023-05-18T09:38:46.402Z,6.83
2023-05-18T09:41:19.391Z,8.17
2023-05-18T09:43:50.010Z,7.07
2023-05-18T09:46:19.174Z,8.83
2023-05-18T09:48:52.268Z,9.20
2023-05-18T09:51:22.624Z,9.70
2023-05-18T09:53:54.407Z,8.43
2023-05-18T09:56:28.008Z,7.07
2023-05-18T09:58:56.594Z,7.47
2023-05-18T10:01:25.164Z,7.50
2023-05-18T10:03:54.103Z,8.93
2023-05-18T10:06:28.502Z,7.90
2023-05-18T10:08:59.929Z,7.00
2023-05-18T10:11:33.608Z,7.23
2023-05-18T10:14:02.007Z,7.53
2023-05-18T10:16:30.616Z,10.23
2023-05-18T10:19:01.156Z,7.47
2023-05-18T10:21:31.886Z,9.30
2023-05-18T10:24:03.710Z,7.63
2023-05-18T10:26:36.314Z,7.50
2023-05-18T10:29:06.576Z,8.63
2023-05-18T10:31:38.503Z,8.67
2023-05-18T10:34:09.794Z,8.03
2023-05-18T10:36:38.883Z,10.20
2023-05-18T10:39:08.521Z,7.33
2023-05-18T10:41:38.828Z,11.63
2023-05-18T10:44:08.430Z,9.40
2023-05-18T10:46:37.834Z,9.13
2023-05-18T10:49:13.761Z,8.10
2023-05-18T10:51:48.188Z,7.90
2023-05-18T10:54:16.630Z,7.93
2023-05-18T10:56:48.660Z,8.80
2023-05-18T10:59:19.161Z,8.43
2023-05-18T11:01:50.467Z,7.33
2023-05-18T11:04:25.908Z,8.20
2023-05-18T11:07:03.778Z,10.50
2023-05-18T11:09:33.255Z,8.20
2023-05-18T11:12:01.857Z,8.20
2023-05-18T11:14:33.830Z,7.10
2023-05-18T11:17:22.150Z,10.83
2023-05-18T11:20:14.636Z,11.33
2023-05-18T11:22:49.297Z,7.97
2023-05-18T11:25:26.549Z,8.60
2023-05-18T11:28:08.492Z,7.03
2023-05-18T11:30:42.896Z,4.70
2023-05-18T11:33:16.799Z,7.20
2023-05-18T11:36:15.349Z,8.20
2023-05-18T11:38:50.793Z,6.17
2023-05-18T11:41:30.436Z,7.10
2023-05-18T11:44:17.223Z,4.80
2023-05-18T11:47:04.898Z,5.03
2023-05-18T11:49:48.185Z,6.40
2023-05-18T11:52:24.140Z,6.10
2023-05-18T11:54:55.558Z,5.00
2023-05-18T11:57:36.192Z,4.73
2023-05-18T12:00:14.130Z,4.40
2023-05-18T12:02:47.812Z,5.20
2023-05-18T12:05:16.794Z,6.13
2023-05-18T12:07:46.241Z,4.10
2023-05-18T12:10:16.841Z,8.03
2023-05-18T12:12:48.713Z,4.73
2023-05-18T12:15:17.609Z,8.23
2023-05-18T12:17:50.786Z,5.13
2023-05-18T12:20:22.252Z,6.87
2023-05-18T12:22:53.924Z,4.53
2023-05-18T12:25:24.635Z,6.90
2023-05-18T12:27:54.671Z,5.87
2023-05-18T12:30:36.149Z,5.93
2023-05-18T12:33:05.408Z,4.50
2023-05-18T12:35:34.373Z,5.60
2023-05-18T12:38:03.341Z,4.30
2023-05-18T12:40:47.271Z,6.80
2023-05-18T12:43:15.803Z,4.87
2023-05-18T12:45:46.134Z,5.30
2023-05-18T12:48:15.670Z,4.93
2023-05-18T12:50:51.592Z,4.13
2023-05-18T12:53:20.399Z,4.80
2023-05-18T12:56:10.441Z,5.07
2023-05-18T12:58:41.119Z,4.90
2023-05-18T13:01:11.436Z,5.50
2023-05-18T13:03:43.222Z,4.30
2023-05-18T13:06:11.880Z,4.87
2023-05-18T13:08:40.325Z,4.77
2023-05-18T13:11:14.657Z,5.33
2023-05-18T13:14:06.477Z,5.57
2023-05-18T13:16:39.159Z,5.07
2023-05-18T13:19:10.627Z,6.60
2023-05-18T13:21:39.916Z,5.70
2023-05-18T13:24:08.576Z,7.70
2023-05-18T13:26:36.932Z,8.17
2023-05-18T13:29:05.819Z,7.07
2023-05-18T13:31:34.194Z,5.77
2023-05-18T13:34:02.575Z,5.00
2023-05-18T13:36:32.472Z,6.57
2023-05-18T13:39:01.638Z,5.63
2023-05-18T13:41:30.019Z,5.27
2023-05-18T13:43:58.365Z,5.10
2023-05-18T13:46:26.950Z,5.70
2023-05-18T13:48:55.401Z,7.17
2023-05-18T13:51:23.835Z,5.47
2023-05-18T13:53:52.204Z,5.80
2023-05-18T13:56:20.649Z,4.60
2023-05-18T13:58:49.073Z,7.80
2023-05-18T14:01:18.626Z,5.07
2023-05-18T14:03:47.277Z,5.60
2023-05-18T14:06:15.638Z,6.30
2023-05-18T14:08:43.981Z,7.77
2023-05-18T14:11:12.370Z,6.50
2023-05-18T14:13:40.801Z,8.60
2023-05-18T14:16:09.479Z,9.63
2023-05-18T14:18:38.051Z,7.60
2023-05-18T14:21:06.590Z,8.57
2023-05-18T14:23:34.926Z,5.53
2023-05-18T14:26:03.328Z,5.20
2023-05-18T14:28:31.792Z,6.47
2023-05-18T14:31:00.269Z,5.57
2023-05-18T14:33:28.693Z,5.80
2023-05-18T14:35:58.574Z,8.60
2023-05-18T14:38:27.802Z,6.73
2023-05-18T14:40:56.203Z,5.40
2023-05-18T14:43:24.574Z,6.80
2023-05-18T14:46:04.344Z,7.10
2023-05-18T14:48:37.208Z,7.10
2023-05-18T14:51:05.679Z,6.60
2023-05-18T14:53:34.074Z,5.20
2023-05-18T14:56:06.732Z,8.60
2023-05-18T14:58:35.436Z,5.60
2023-05-18T15:01:04.304Z,8.20
2023-05-18T15:03:32.730Z,5.00
2023-05-18T15:06:01.187Z,5.70
2023-05-18T15:08:29.538Z,7.40
2023-05-18T15:10:58.038Z,6.80
2023-05-18T15:13:26.581Z,6.50
2023-05-18T15:15:55.098Z,6.80
2023-05-18T15:18:23.429Z,6.13
2023-05-18T15:20:51.788Z,4.77
2023-05-18T15:23:20.286Z,5.93
2023-05-18T15:25:48.676Z,6.10
2023-05-18T15:28:17.035Z,7.60
2023-05-18T15:30:45.379Z,5.90
2023-05-18T15:33:14.125Z,9.10
2023-05-18T15:35:42.538Z,7.50
2023-05-18T15:38:10.927Z,5.70
2023-05-18T15:40:39.298Z,5.87
2023-05-18T15:43:07.653Z,5.57
2023-05-18T15:45:36.299Z,5.77
2023-05-18T15:48:04.798Z,5.30
2023-05-18T15:50:33.227Z,5.30
2023-05-18T15:53:01.620Z,5.60
2023-05-18T15:55:29.992Z,5.40
2023-05-18T15:57:58.390Z,5.67
2023-05-18T16:00:27.153Z,8.20
2023-05-18T16:02:55.550Z,6.30
2023-05-18T16:05:23.971Z,5.00
2023-05-18T16:07:52.344Z,5.77
2023-05-18T16:10:24.239Z,5.03
2023-05-18T16:12:52.731Z,6.27
2023-05-18T16:15:25.020Z,5.23
2023-05-18T16:17:53.398Z,5.50
2023-05-18T16:20:22.194Z,7.30
2023-05-18T16:22:52.114Z,5.90
2023-05-18T16:25:20.620Z,4.50
2023-05-18T16:27:48.994Z,7.33
2023-05-18T16:30:17.382Z,8.03
2023-05-18T16:32:46.000Z,6.93
2023-05-18T16:35:14.463Z,5.73
2023-05-18T16:37:42.832Z,6.00
2023-05-18T16:40:11.508Z,9.43
2023-05-18T16:42:39.872Z,7.53
2023-05-18T16:45:08.545Z,8.00
2023-05-18T16:47:36.932Z,7.57
2023-05-18T16:50:05.527Z,9.33
2023-05-18T16:52:33.851Z,7.60
2023-05-18T16:55:02.188Z,7.87
2023-05-18T16:57:30.973Z,8.43
2023-05-18T17:00:00.789Z,8.17
2023-05-18T17:02:29.503Z,7.63
2023-05-18T17:04:59.813Z,7.83
2023-05-18T17:07:28.269Z,9.30
2023-05-18T17:09:57.098Z,7.67
2023-05-18T17:12:25.450Z,8.20
2023-05-18T17:14:53.788Z,7.17
2023-05-18T17:17:22.238Z,11.73
2023-05-18T17:19:50.872Z,8.97
2023-05-18T17:22:19.215Z,8.33
2023-05-18T17:24:47.712Z,8.70
2023-05-18T17:27:16.523Z,10.97
2023-05-18T17:29:44.876Z,11.40
2023-05-18T17:32:13.270Z,9.10
2023-05-18T17:34:41.744Z,9.03
2023-05-18T17:37:10.159Z,11.10
2023-05-18T17:39:38.730Z,9.87
2023-05-18T17:42:07.669Z,9.60
2023-05-18T17:44:36.154Z,15.30
2023-05-18T17:47:04.881Z,9.47
2023-05-18T17:49:33.849Z,10.37
2023-05-18T17:52:02.290Z,9.83
2023-05-18T17:54:30.756Z,10.07
2023-05-18T17:56:59.173Z,8.93
2023-05-18T17:59:27.595Z,8.60
2023-05-18T18:01:56.053Z,8.43
2023-05-18T18:04:24.528Z,8.50
2023-05-18T18:06:55.333Z,8.93
2023-05-18T18:09:23.741Z,9.83
2023-05-18T18:11:52.093Z,8.60
2023-05-18T18:14:20.441Z,9.27
2023-05-18T18:16:49.111Z,9.60
2023-05-18T18:19:17.533Z,7.77
2023-05-18T18:21:45.900Z,8.57
2023-05-18T18:24:15.148Z,5.57
2023-05-18T18:26:43.530Z,9.67
2023-05-18T18:29:12.165Z,6.20
2023-05-18T18:31:40.684Z,8.77
2023-05-18T18:34:09.196Z,7.10
2023-05-18T18:36:40.793Z,7.47
2023-05-18T18:39:09.431Z,7.80
2023-05-18T18:41:37.939Z,10.27
2023-05-18T18:44:06.442Z,11.60
2023-05-18T18:46:34.946Z,8.93
2023-05-18T18:49:03.384Z,13.90
2023-05-18T18:51:32.038Z,21.37
2023-05-18T18:54:00.405Z,14.83
2023-05-18T18:56:29.036Z,15.10
2023-05-18T18:58:57.814Z,11.50
2023-05-18T19:01:26.405Z,13.60
2023-05-18T19:03:54.986Z,10.70
2023-05-18T19:06:23.959Z,7.30
2023-05-18T19:08:54.089Z,7.83
2023-05-18T19:11:24.133Z,5.30
2023-05-18T19:13:52.507Z,8.17
2023-05-18T19:16:22.311Z,5.37
2023-05-18T19:18:50.756Z,5.90
2023-05-18T19:21:19.081Z,6.70
2023-05-18T19:23:47.406Z,4.77
2023-05-18T19:26:15.810Z,5.60
2023-05-18T19:28:44.165Z,6.37
2023-05-18T19:31:12.632Z,6.90
2023-05-18T19:33:41.130Z,4.83
2023-05-18T19:36:11.146Z,5.50
2023-05-18T19:38:39.481Z,4.67
2023-05-18T19:41:07.934Z,5.10
2023-05-18T19:43:36.748Z,7.97
2023-05-18T19:46:06.234Z,10.33
2023-05-18T19:48:34.840Z,5.20
2023-05-18T19:51:04.900Z,4.30
2023-05-18T19:53:33.299Z,7.20
2023-05-18T19:56:02.076Z,5.20
2023-05-18T19:58:30.400Z,6.07
2023-05-18T20:00:58.731Z,6.00
2023-05-18T20:03:28.318Z,9.30
2023-05-18T20:05:57.416Z,8.83
2023-05-18T20:08:26.412Z,10.70
2023-05-18T20:10:55.176Z,9.23
2023-05-18T20:13:23.757Z,9.57
2023-05-18T20:15:52.260Z,8.47
2023-05-18T20:18:20.657Z,9.93
2023-05-18T20:20:50.640Z,8.77
2023-05-18T20:23:19.229Z,8.50
2023-05-18T20:25:48.953Z,8.50
2023-05-18T20:28:17.327Z,10.47
2023-05-18T20:30:45.665Z,8.03
2023-05-18T20:33:16.331Z,6.30
2023-05-18T20:35:46.030Z,6.80
2023-05-18T20:38:14.460Z,6.20
2023-05-18T20:40:42.839Z,5.03
2023-05-18T20:43:12.322Z,4.70
2023-05-18T20:45:42.169Z,8.03
2023-05-18T20:48:10.661Z,8.53
2023-05-18T20:50:40.007Z,8.50
2023-05-18T20:53:08.336Z,7.73
2023-05-18T20:55:36.691Z,7.67
2023-05-18T20:58:05.374Z,9.47
2023-05-18T21:00:34.233Z,10.37
2023-05-18T21:03:05.005Z,6.00
2023-05-18T21:05:34.199Z,9.87
2023-05-18T21:08:04.134Z,7.17
2023-05-18T21:10:33.053Z,8.20
2023-05-18T21:13:01.701Z,7.67
2023-05-18T21:15:30.523Z,8.87
2023-05-18T21:17:59.064Z,9.60
2023-05-18T21:20:27.747Z,8.13
2023-05-18T21:22:56.270Z,6.57
2023-05-18T21:25:24.817Z,8.87
2023-05-18T21:27:53.124Z,9.20
2023-05-18T21:30:21.545Z,7.53
2023-05-18T21:32:50.441Z,7.37
2023-05-18T21:35:19.001Z,5.10
2023-05-18T21:37:47.382Z,7.70
2023-05-18T21:40:15.715Z,6.17
2023-05-18T21:42:46.692Z,7.00
2023-05-18T21:45:15.327Z,7.50
2023-05-18T21:47:43.658Z,5.90
2023-05-18T21:50:12.388Z,6.10
2023-05-18T21:52:40.717Z,4.70
2023-05-18T21:55:09.679Z,6.17
2023-05-18T21:57:38.024Z,5.87
2023-05-18T22:00:07.378Z,4.70
2023-05-18T22:02:35.760Z,5.20
2023-05-18T22:05:04.162Z,5.07
2023-05-18T22:07:32.653Z,6.70
2023-05-18T22:10:01.332Z,4.90
2023-05-18T22:12:29.741Z,4.63
2023-05-18T22:14:58.166Z,9.00
2023-05-18T22:17:26.804Z,6.20
2023-05-18T22:20:38.085Z,7.90
2023-05-18T22:23:06.476Z,8.93
2023-05-18T22:25:34.872Z,12.70
2023-05-18T22:28:03.382Z,11.07
2023-05-18T22:30:34.460Z,8.30
2023-05-18T22:33:02.931Z,13.03
2023-05-18T22:35:31.732Z,9.23
2023-05-18T22:38:00.085Z,9.17
2023-05-18T22:40:28.417Z,7.40
2023-05-18T22:42:57.984Z,10.53
2023-05-18T22:45:26.484Z,7.53
2023-05-18T22:47:54.910Z,6.33
2023-05-18T22:50:23.534Z,7.13
2023-05-18T22:52:52.041Z,10.27
2023-05-18T22:55:20.489Z,7.87
2023-05-18T22:57:48.838Z,6.90
2023-05-18T23:00:19.419Z,7.27
2023-05-18T23:02:47.950Z,9.47
2023-05-18T23:05:16.747Z,8.40
2023-05-18T23:07:45.170Z,7.70
2023-05-18T23:10:14.068Z,6.67
2023-05-18T23:12:42.414Z,8.13
2023-05-18T23:15:11.572Z,9.57
2023-05-18T23:17:40.296Z,9.03
2023-05-18T23:20:09.404Z,8.17
2023-05-18T23:22:37.950Z,7.70
2023-05-18T23:25:09.312Z,9.60
2023-05-18T23:27:37.836Z,8.83
2023-05-18T23:30:06.948Z,9.10
2023-05-18T23:32:37.196Z,8.30
2023-05-18T23:35:07.176Z,12.33
2023-05-18T23:37:38.367Z,9.50
2023-05-18T23:40:09.047Z,7.80
2023-05-18T23:42:37.684Z,8.17
2023-05-18T23:45:07.375Z,7.97
2023-05-18T23:47:36.330Z,7.90
2023-05-18T23:50:04.964Z,8.27
2023-05-18T23:52:35.548Z,9.77
2023-05-18T23:55:06.004Z,10.50
2023-05-18T23:57:34.655Z,7.80
